createdAt,value
2022-11-15T00:02:31.298Z,25.1
2022-11-15T00:08:04.947Z,25
2022-11-15T00:13:26.961Z,25
2022-11-15T00:18:50.945Z,25
2022-11-15T00:24:27.727Z,25
2022-11-15T00:29:49.942Z,24.9
2022-11-15T00:35:30.074Z,24.9
2022-11-15T00:41:09.527Z,24.9
2022-11-15T00:46:46.113Z,24.9
2022-11-15T00:51:54.331Z,24.9
2022-11-15T00:57:31.921Z,24.9
2022-11-15T01:03:09.208Z,24.9
2022-11-15T01:08:33.466Z,24.9
2022-11-15T01:14:10.613Z,24.9
2022-11-15T01:19:48.275Z,24.8
2022-11-15T01:25:26.710Z,24.8
2022-11-15T01:31:03.983Z,24.8
2022-11-15T01:36:41.365Z,24.8
2022-11-15T01:42:18.904Z,24.8
2022-11-15T01:47:40.555Z,24.8
2022-11-15T01:53:18.263Z,24.8
2022-11-15T01:58:56.001Z,24.8
2022-11-15T02:04:18.260Z,24.7
2022-11-15T02:09:25.518Z,24.9
2022-11-15T02:14:46.873Z,25.1
2022-11-15T02:20:23.319Z,25.6
2022-11-15T02:31:07.405Z,26.5
2022-11-15T02:36:43.560Z,27
2022-11-15T02:42:05.269Z,27.5
2022-11-15T02:47:42.999Z,27.9
2022-11-15T02:58:10.649Z,28.9
2022-11-15T03:03:48.924Z,29.3
2022-11-15T03:09:10.911Z,29.8
2022-11-15T03:14:32.400Z,30.3
2022-11-15T03:19:39.086Z,30.6
2022-11-15T03:24:59.672Z,31.1
2022-11-15T03:30:20.841Z,31.4
2022-11-15T03:35:46.586Z,31.9
2022-11-15T03:41:13.898Z,32.2
2022-11-15T03:46:50.659Z,32.4
2022-11-15T03:52:27.903Z,32.6
2022-11-15T03:58:04.693Z,32.7
2022-11-15T04:02:56.540Z,32.8
2022-11-15T04:08:35.505Z,32.9
2022-11-15T04:13:41.115Z,32.9
2022-11-15T04:19:02.853Z,32.9
2022-11-15T04:24:41.213Z,32.9
2022-11-15T04:30:08.455Z,33
2022-11-15T04:35:46.227Z,32.9
2022-11-15T04:41:28.948Z,33
2022-11-15T04:47:05.045Z,33
2022-11-15T04:52:27.248Z,33
2022-11-15T04:58:05.417Z,33
2022-11-15T05:03:38.266Z,33
2022-11-15T05:09:00.985Z,33.1
2022-11-15T05:14:38.986Z,33
2022-11-15T05:20:02.419Z,32.9
2022-11-15T05:25:25.096Z,33
2022-11-15T05:31:03.110Z,32.9
2022-11-15T05:36:24.969Z,32.9
2022-11-15T05:41:46.425Z,32.9
2022-11-15T05:47:24.165Z,32.8
2022-11-15T05:53:04.763Z,32.8
2022-11-15T05:58:27.323Z,32.8
2022-11-15T06:03:50.565Z,32.8
2022-11-15T06:09:12.995Z,32.8
2022-11-15T06:14:50.622Z,32.7
2022-11-15T06:20:18.938Z,32.7
2022-11-15T06:25:55.440Z,32.6
2022-11-15T06:31:32.409Z,32.6
2022-11-15T06:36:54.907Z,32.5
2022-11-15T06:42:31.604Z,32.5
2022-11-15T06:48:09.024Z,32.4
2022-11-15T06:53:46.920Z,32.4
2022-11-15T06:59:23.270Z,32.4
2022-11-15T07:05:02.222Z,32.3
2022-11-15T07:10:39.556Z,32.3
2022-11-15T07:16:21.882Z,32.3
2022-11-15T07:21:44.525Z,32.3
2022-11-15T07:27:08.155Z,32.2
2022-11-15T07:32:30.471Z,32.2
2022-11-15T07:38:08.358Z,32.1
2022-11-15T07:43:46.456Z,32.1
2022-11-15T07:49:34.055Z,31.9
2022-11-15T07:54:56.848Z,31.9
2022-11-15T08:00:19.626Z,31.9
2022-11-15T08:05:58.406Z,31.8
2022-11-15T08:11:36.682Z,31.7
2022-11-15T08:17:20.076Z,31.7
2022-11-15T08:22:57.531Z,31.6
2022-11-15T08:28:36.426Z,31.6
2022-11-15T08:34:14.198Z,31.5
2022-11-15T08:40:06.521Z,31.4
2022-11-15T08:45:45.664Z,31.4
2022-11-15T08:51:23.846Z,31.3
2022-11-15T08:57:03.861Z,31.3
2022-11-15T09:02:41.977Z,31.2
2022-11-15T09:08:49.282Z,31.2
2022-11-15T09:14:31.861Z,31.1
2022-11-15T09:20:17.488Z,31.1
2022-11-15T09:25:59.584Z,31
2022-11-15T09:32:11.777Z,30.9
2022-11-15T09:37:55.046Z,30.9
2022-11-15T09:43:33.686Z,30.8
2022-11-15T09:49:12.803Z,30.8
2022-11-15T09:55:58.134Z,30.8
2022-11-15T10:01:52.244Z,30.7
2022-11-15T10:07:35.377Z,30.6
2022-11-15T10:13:37.238Z,30.6
2022-11-15T10:19:15.045Z,30.5
2022-11-15T10:24:53.683Z,30.4
2022-11-15T10:30:20.891Z,30.4
2022-11-15T10:36:00.805Z,30.4
2022-11-15T10:43:18.900Z,30.3
2022-11-15T10:49:35.722Z,30.3
2022-11-15T10:55:18.331Z,30.2
2022-11-15T11:01:01.127Z,30.2
2022-11-15T11:06:45.963Z,30.1
2022-11-15T11:12:58.958Z,30.1
2022-11-15T11:18:36.706Z,30.1
2022-11-15T11:24:04.707Z,30
2022-11-15T11:29:43.333Z,30
2022-11-15T11:35:24.345Z,29.9
2022-11-15T11:40:47.134Z,29.9
2022-11-15T11:46:24.545Z,29.9
2022-11-15T11:52:02.729Z,29.9
2022-11-15T11:57:41.760Z,29.8
2022-11-15T12:03:25.961Z,29.8
2022-11-15T12:09:08.892Z,29.8
2022-11-15T12:14:47.066Z,29.8
2022-11-15T12:20:25.397Z,29.9
2022-11-15T12:26:01.583Z,29.7
2022-11-15T12:31:53.493Z,29.6
2022-11-15T12:37:31.302Z,29.4
2022-11-15T12:42:40.736Z,29.4
2022-11-15T12:47:47.752Z,29.4
2022-11-15T12:53:10.153Z,29.3
2022-11-15T12:58:48.054Z,29.3
2022-11-15T13:04:26.396Z,29.2
2022-11-15T13:10:03.431Z,29.2
2022-11-15T13:15:44.512Z,29.1
2022-11-15T13:21:22.743Z,29.1
2022-11-15T13:26:44.852Z,29.1
2022-11-15T13:32:06.298Z,29.1
2022-11-15T13:38:17.440Z,29.1
2022-11-15T13:43:55.673Z,29
2022-11-15T13:49:35.098Z,28.9
2022-11-15T13:55:16.996Z,28.9
2022-11-15T14:00:54.933Z,28.9
2022-11-15T14:06:32.040Z,28.8
2022-11-15T14:12:16.180Z,28.8
2022-11-15T14:17:38.412Z,28.8
2022-11-15T14:23:00.710Z,28.7
2022-11-15T14:28:26.409Z,28.6
2022-11-15T14:33:47.842Z,28.6
2022-11-15T14:39:25.249Z,28.6
2022-11-15T14:44:32.605Z,28.5
2022-11-15T14:49:55.132Z,28.6
2022-11-15T14:55:23.380Z,28.5
2022-11-15T15:00:51.580Z,28.5
2022-11-15T15:06:17.819Z,28.5
2022-11-15T15:12:04.933Z,28.4
2022-11-15T15:17:28.371Z,28.4
2022-11-15T15:23:00.123Z,28.4
2022-11-15T15:28:06.898Z,28.4
2022-11-15T15:33:30.062Z,28.4
2022-11-15T15:38:52.617Z,28.3
2022-11-15T15:44:16.643Z,28.3
2022-11-15T15:49:39.717Z,28.3
2022-11-15T15:55:09.830Z,28.3
2022-11-15T16:00:04.150Z,28.3
2022-11-15T16:05:11.632Z,28.3
2022-11-15T16:10:48.262Z,28.3
2022-11-15T16:16:10.492Z,28.3
2022-11-15T16:21:33.460Z,28.3
2022-11-15T16:26:55.847Z,28.3
2022-11-15T16:32:20.389Z,28.3
2022-11-15T16:37:54.086Z,28.3
2022-11-15T16:43:00.594Z,28.3
2022-11-15T16:48:27.342Z,28.3
2022-11-15T16:53:49.673Z,28.3
2022-11-15T16:59:11.724Z,28.2
2022-11-15T17:04:19.104Z,28.1
2022-11-15T17:14:52.447Z,27.9
2022-11-15T17:20:14.656Z,27.9
2022-11-15T17:25:36.572Z,27.9
2022-11-15T17:36:10.850Z,27.8
2022-11-15T17:41:48.935Z,27.7
2022-11-15T17:47:11.521Z,27.7
2022-11-15T17:52:39.307Z,27.6
2022-11-15T17:58:17.405Z,27.6
2022-11-15T18:03:47.322Z,27.4
2022-11-15T18:09:26.583Z,27.4
2022-11-15T18:14:48.895Z,27.4
2022-11-15T18:20:31.222Z,27.4
2022-11-15T18:26:09.155Z,27.4
2022-11-15T18:31:48.788Z,27.3
2022-11-15T18:36:56.758Z,27.3
2022-11-15T18:42:39.318Z,27.1
2022-11-15T18:48:02.279Z,27.1
2022-11-15T18:53:25.124Z,27
2022-11-15T18:59:02.871Z,27
2022-11-15T19:04:45.699Z,26.9
2022-11-15T19:10:28.547Z,26.9
2022-11-15T19:16:05.319Z,26.8
2022-11-15T19:21:47.860Z,26.8
2022-11-15T19:27:25.302Z,26.6
2022-11-15T19:33:02.771Z,26.3
2022-11-15T19:38:46.425Z,25.8
2022-11-15T19:44:28.996Z,25.4
2022-11-15T19:49:58.075Z,25.2
2022-11-15T19:55:23.318Z,24.9
2022-11-15T20:01:01.195Z,24.8
2022-11-15T20:06:25.128Z,24.6
2022-11-15T20:11:47.765Z,24.6
2022-11-15T20:17:27.597Z,24.6
2022-11-15T20:23:06.502Z,25.5
2022-11-15T20:28:44.563Z,26.9
2022-11-15T20:34:22.281Z,28.3
2022-11-15T20:39:44.785Z,29.3
2022-11-15T20:45:28.121Z,30
2022-11-15T20:51:41.474Z,30.6
2022-11-15T20:57:04.041Z,31.1
2022-11-15T21:02:27.979Z,31.6
2022-11-15T21:08:11.750Z,32
2022-11-15T21:13:33.680Z,32.4
2022-11-15T21:19:13.994Z,32.7
2022-11-15T21:24:42.022Z,32.9
2022-11-15T21:30:19.983Z,33
2022-11-15T21:36:03.587Z,33.1
2022-11-15T21:41:26.837Z,33.2
2022-11-15T21:47:04.706Z,33.3
2022-11-15T21:52:32.486Z,33.3
2022-11-15T21:57:23.502Z,33.3
2022-11-15T22:02:46.855Z,33.3
2022-11-15T22:08:29.881Z,33.3
2022-11-15T22:13:53.496Z,33.4
2022-11-15T22:19:32.844Z,33.3
2022-11-15T22:25:24.504Z,33.3
2022-11-15T22:30:21.108Z,33.3
2022-11-15T22:35:43.344Z,33.3
2022-11-15T22:41:51.526Z,33.3
2022-11-15T22:47:28.377Z,33.3
2022-11-15T22:53:06.947Z,33.3
2022-11-15T22:58:50.279Z,33.2
2022-11-15T23:04:00.557Z,33.2
2022-11-15T23:09:38.392Z,33.1
2022-11-15T23:15:16.523Z,33.1
2022-11-15T23:21:18.317Z,33.1
2022-11-15T23:26:56.087Z,33.1
2022-11-15T23:32:35.674Z,33
2022-11-15T23:38:18.405Z,32.9
2022-11-15T23:44:02.509Z,32.9
2022-11-15T23:49:41.173Z,32.9
2022-11-15T23:55:17.840Z,32.8
